JBU2433 KDCA-KPBI
Flight info
| Callsign | JBU2433 |
|---|---|
| Flight time | 2h 12m |
| Altitude | 36000 |
| Route | AMEEE1 SCOOB PAACK Q97 KENLL CPTAN3 |
| Aircraft | A320/M-SDE3FGHIRWY/LB1 |
Departure
| Time | 2026-04-22 10:58 |
|---|---|
| Airport | Ronald Reagan Washington National Airport (KDCA) |
Arrival
| Time | 2026-04-22 13:10 |
|---|---|
| Airport | Palm Beach International Airport (KPBI) |
| Time | Latitude | Longitude | Altitude | Speed | Heading |
|---|---|---|---|---|---|
| 2026-04-22 10:15 | 38.85338 | -77.04239 | 28 ft | 0 kts | 0° |
| 2026-04-22 10:49 | 38.85328 | -77.04240 | 24 ft | 4 kts | 354° |
| 2026-04-22 10:49 | 38.85303 | -77.04231 | 25 ft | 4 kts | 332° |
| 2026-04-22 10:50 | 38.85284 | -77.04221 | 28 ft | 3 kts | 28° |
| 2026-04-22 10:50 | 38.85290 | -77.04213 | 27 ft | 4 kts | 54° |
| 2026-04-22 10:50 | 38.85298 | -77.04181 | 25 ft | 4 kts | 72° |
| 2026-04-22 10:50 | 38.85300 | -77.04172 | 26 ft | 0 kts | 72° |
| 2026-04-22 10:53 | 38.85302 | -77.04163 | 26 ft | 2 kts | 72° |
| 2026-04-22 10:54 | 38.85309 | -77.04135 | 24 ft | 4 kts | 72° |
| 2026-04-22 10:54 | 38.85320 | -77.04089 | 24 ft | 6 kts | 72° |
| 2026-04-22 10:54 | 38.85336 | -77.04025 | 24 ft | 8 kts | 69° |
| 2026-04-22 10:54 | 38.85391 | -77.03999 | 24 ft | 10 kts | 352° |
| 2026-04-22 10:55 | 38.85465 | -77.04008 | 24 ft | 12 kts | 355° |
| 2026-04-22 10:55 | 38.85550 | -77.04030 | 24 ft | 13 kts | 349° |
| 2026-04-22 10:55 | 38.85649 | -77.04042 | 24 ft | 15 kts | 355° |
| 2026-04-22 10:55 | 38.85758 | -77.04054 | 26 ft | 16 kts | 355° |
| 2026-04-22 10:56 | 38.85866 | -77.04064 | 26 ft | 9 kts | 355° |
| 2026-04-22 10:56 | 38.85921 | -77.04052 | 24 ft | 9 kts | 39° |
| 2026-04-22 10:56 | 38.85958 | -77.03976 | 25 ft | 11 kts | 37° |
| 2026-04-22 10:56 | 38.86035 | -77.03944 | 24 ft | 10 kts | 15° |
| 2026-04-22 10:57 | 38.86097 | -77.03902 | 23 ft | 11 kts | 51° |
| 2026-04-22 10:57 | 38.86060 | -77.03859 | 23 ft | 11 kts | 182° |
| 2026-04-22 10:57 | 38.85844 | -77.03846 | 27 ft | 64 kts | 175° |
| 2026-04-22 10:57 | 38.85204 | -77.03782 | 25 ft | 120 kts | 175° |
| 2026-04-22 10:58 | 38.84237 | -77.03685 | 114 ft | 152 kts | 176° |
| 2026-04-22 10:58 | 38.83191 | -77.03568 | 665 ft | 150 kts | 174° |
| 2026-04-22 10:58 | 38.82157 | -77.03357 | 1249 ft | 151 kts | 176° |
| 2026-04-22 10:58 | 38.81082 | -77.03125 | 1583 ft | 167 kts | 177° |
| 2026-04-22 10:59 | 38.79835 | -77.02861 | 1830 ft | 191 kts | 176° |
| 2026-04-22 10:59 | 38.78464 | -77.02571 | 2099 ft | 213 kts | 176° |
| 2026-04-22 10:59 | 38.76922 | -77.02236 | 2479 ft | 233 kts | 175° |
| 2026-04-22 10:59 | 38.75298 | -77.01775 | 3119 ft | 248 kts | 161° |
| 2026-04-22 11:00 | 38.73735 | -77.00599 | 3539 ft | 274 kts | 149° |
| 2026-04-22 11:00 | 38.72120 | -76.99174 | 4178 ft | 286 kts | 148° |
| 2026-04-22 11:00 | 38.70467 | -76.97681 | 4911 ft | 295 kts | 148° |
| 2026-04-22 11:00 | 38.68771 | -76.96147 | 5669 ft | 302 kts | 147° |
| 2026-04-22 11:01 | 38.67039 | -76.94590 | 6510 ft | 306 kts | 148° |
| 2026-04-22 11:01 | 38.65282 | -76.93023 | 7327 ft | 308 kts | 148° |
| 2026-04-22 11:01 | 38.63518 | -76.91460 | 8173 ft | 309 kts | 148° |
| 2026-04-22 11:01 | 38.61747 | -76.89899 | 9038 ft | 309 kts | 149° |
| 2026-04-22 11:02 | 38.59980 | -76.88347 | 9910 ft | 308 kts | 149° |
| 2026-04-22 11:02 | 38.58208 | -76.86791 | 10578 ft | 315 kts | 149° |
| 2026-04-22 11:02 | 38.56333 | -76.85152 | 10737 ft | 338 kts | 149° |
| 2026-04-22 11:02 | 38.54329 | -76.83398 | 10899 ft | 359 kts | 148° |
| 2026-04-22 11:03 | 38.52246 | -76.81544 | 11381 ft | 368 kts | 148° |
| 2026-04-22 11:03 | 38.50145 | -76.79655 | 12014 ft | 371 kts | 148° |
| 2026-04-22 11:03 | 38.48023 | -76.77746 | 12659 ft | 374 kts | 149° |
| 2026-04-22 11:03 | 38.45914 | -76.75850 | 13311 ft | 377 kts | 149° |
| 2026-04-22 11:04 | 38.43752 | -76.73919 | 13959 ft | 380 kts | 151° |
| 2026-04-22 11:04 | 38.41447 | -76.72286 | 14509 ft | 379 kts | 161° |
| 2026-04-22 11:04 | 38.38966 | -76.71194 | 15031 ft | 377 kts | 171° |
| 2026-04-22 11:04 | 38.36382 | -76.70647 | 15549 ft | 377 kts | 178° |
| 2026-04-22 11:05 | 38.34614 | -76.70375 | 15881 ft | 380 kts | 178° |
| 2026-04-22 11:05 | 38.31971 | -76.69962 | 16389 ft | 385 kts | 178° |
| 2026-04-22 11:05 | 38.29297 | -76.69538 | 16904 ft | 389 kts | 178° |
| 2026-04-22 11:05 | 38.26591 | -76.69101 | 17428 ft | 394 kts | 178° |
| 2026-04-22 11:06 | 38.23854 | -76.68652 | 17947 ft | 399 kts | 178° |
| 2026-04-22 11:06 | 38.21087 | -76.68198 | 18470 ft | 404 kts | 178° |
| 2026-04-22 11:06 | 38.18284 | -76.67744 | 18932 ft | 408 kts | 178° |
| 2026-04-22 11:06 | 38.15449 | -76.67290 | 19407 ft | 413 kts | 178° |
| 2026-04-22 11:07 | 38.12583 | -76.66834 | 19874 ft | 417 kts | 178° |
| 2026-04-22 11:07 | 38.09716 | -76.66385 | 20334 ft | 422 kts | 178° |
| 2026-04-22 11:07 | 38.06788 | -76.66042 | 20798 ft | 425 kts | 180° |
| 2026-04-22 11:07 | 38.03825 | -76.65816 | 21236 ft | 428 kts | 182° |
| 2026-04-22 11:08 | 38.00837 | -76.65658 | 21676 ft | 431 kts | 182° |
| 2026-04-22 11:08 | 37.97826 | -76.65521 | 22097 ft | 435 kts | 182° |
| 2026-04-22 11:08 | 37.94783 | -76.65376 | 22512 ft | 439 kts | 182° |
| 2026-04-22 11:08 | 37.91719 | -76.65208 | 22922 ft | 443 kts | 182° |
| 2026-04-22 11:09 | 37.88627 | -76.65016 | 23318 ft | 447 kts | 181° |
| 2026-04-22 11:09 | 37.85513 | -76.64809 | 23732 ft | 449 kts | 181° |
| 2026-04-22 11:09 | 37.82380 | -76.64592 | 24080 ft | 452 kts | 181° |
| 2026-04-22 11:09 | 37.79229 | -76.64370 | 24425 ft | 455 kts | 181° |
| 2026-04-22 11:10 | 37.76062 | -76.64146 | 24771 ft | 456 kts | 181° |
| 2026-04-22 11:10 | 37.72885 | -76.63925 | 25111 ft | 458 kts | 181° |
| 2026-04-22 11:10 | 37.69694 | -76.63712 | 25451 ft | 460 kts | 181° |
| 2026-04-22 11:10 | 37.66483 | -76.63505 | 25779 ft | 462 kts | 181° |
| 2026-04-22 11:11 | 37.63261 | -76.63299 | 26112 ft | 464 kts | 182° |
| 2026-04-22 11:11 | 37.60049 | -76.63351 | 26439 ft | 461 kts | 190° |
| 2026-04-22 11:11 | 37.56893 | -76.63981 | 26769 ft | 457 kts | 199° |
| 2026-04-22 11:11 | 37.53853 | -76.65092 | 27093 ft | 456 kts | 202° |
| 2026-04-22 11:12 | 37.50816 | -76.66271 | 27417 ft | 458 kts | 202° |
| 2026-04-22 11:12 | 37.47764 | -76.67449 | 27755 ft | 459 kts | 202° |
| 2026-04-22 11:12 | 37.44715 | -76.68619 | 28212 ft | 458 kts | 202° |
| 2026-04-22 11:12 | 37.41673 | -76.69786 | 28667 ft | 456 kts | 202° |
| 2026-04-22 11:13 | 37.38647 | -76.70947 | 29158 ft | 454 kts | 202° |
| 2026-04-22 11:13 | 37.35667 | -76.72091 | 29628 ft | 453 kts | 202° |
| 2026-04-22 11:13 | 37.32657 | -76.73244 | 30102 ft | 452 kts | 202° |
| 2026-04-22 11:13 | 37.29653 | -76.74395 | 30526 ft | 451 kts | 202° |
| 2026-04-22 11:14 | 37.26657 | -76.75543 | 30931 ft | 450 kts | 202° |
| 2026-04-22 11:14 | 37.23629 | -76.76703 | 31342 ft | 449 kts | 202° |
| 2026-04-22 11:14 | 37.20646 | -76.77843 | 31737 ft | 447 kts | 202° |
| 2026-04-22 11:14 | 37.17675 | -76.78977 | 32149 ft | 446 kts | 202° |
| 2026-04-22 11:15 | 37.14745 | -76.80094 | 32554 ft | 445 kts | 202° |
| 2026-04-22 11:15 | 37.11784 | -76.81220 | 32969 ft | 444 kts | 202° |
| 2026-04-22 11:15 | 37.08831 | -76.82341 | 33380 ft | 443 kts | 202° |
| 2026-04-22 11:15 | 37.05889 | -76.83460 | 33800 ft | 442 kts | 203° |
| 2026-04-22 11:16 | 37.02948 | -76.84579 | 34206 ft | 441 kts | 203° |
| 2026-04-22 11:16 | 37.00018 | -76.85697 | 34540 ft | 440 kts | 203° |
| 2026-04-22 11:16 | 36.97094 | -76.86808 | 34825 ft | 439 kts | 203° |
| 2026-04-22 11:16 | 36.94169 | -76.87916 | 35114 ft | 439 kts | 203° |
| 2026-04-22 11:17 | 36.91247 | -76.89024 | 35416 ft | 438 kts | 203° |
| 2026-04-22 11:17 | 36.88332 | -76.90131 | 35694 ft | 438 kts | 203° |
| 2026-04-22 11:17 | 36.85417 | -76.91234 | 35973 ft | 437 kts | 202° |
| 2026-04-22 11:17 | 36.82500 | -76.92336 | 36199 ft | 438 kts | 202° |
| 2026-04-22 11:18 | 36.79576 | -76.93443 | 36246 ft | 442 kts | 203° |
| 2026-04-22 11:18 | 36.73620 | -76.95704 | 36242 ft | 450 kts | 202° |
| 2026-04-22 11:19 | 36.67611 | -76.97961 | 36247 ft | 452 kts | 202° |
| 2026-04-22 11:19 | 36.61593 | -77.00220 | 36247 ft | 452 kts | 202° |
| 2026-04-22 11:20 | 36.55576 | -77.02485 | 36255 ft | 452 kts | 202° |
| 2026-04-22 11:20 | 36.49550 | -77.04750 | 36243 ft | 452 kts | 202° |
| 2026-04-22 11:21 | 36.43528 | -77.07006 | 36260 ft | 452 kts | 202° |
| 2026-04-22 11:21 | 36.37502 | -77.09254 | 36269 ft | 452 kts | 202° |
| 2026-04-22 11:22 | 36.31505 | -77.11481 | 36277 ft | 452 kts | 202° |
| 2026-04-22 11:22 | 36.25478 | -77.13726 | 36268 ft | 452 kts | 203° |
| 2026-04-22 11:23 | 36.19456 | -77.15975 | 36286 ft | 452 kts | 203° |
| 2026-04-22 11:23 | 36.13428 | -77.18219 | 36288 ft | 452 kts | 203° |
| 2026-04-22 11:24 | 36.07399 | -77.20455 | 36286 ft | 452 kts | 203° |
| 2026-04-22 11:24 | 36.01374 | -77.22683 | 36284 ft | 452 kts | 203° |
| 2026-04-22 11:25 | 35.95366 | -77.24953 | 36283 ft | 448 kts | 207° |
| 2026-04-22 11:25 | 35.89991 | -77.28549 | 36289 ft | 433 kts | 224° |
| 2026-04-22 11:26 | 35.85296 | -77.33097 | 36287 ft | 432 kts | 224° |
| 2026-04-22 11:26 | 35.80568 | -77.37664 | 36282 ft | 432 kts | 224° |
| 2026-04-22 11:27 | 35.75835 | -77.42218 | 36291 ft | 432 kts | 224° |
| 2026-04-22 11:27 | 35.71101 | -77.46760 | 36295 ft | 431 kts | 224° |
| 2026-04-22 11:28 | 35.66366 | -77.51300 | 36298 ft | 431 kts | 224° |
| 2026-04-22 11:28 | 35.61635 | -77.55840 | 36300 ft | 431 kts | 224° |
| 2026-04-22 11:29 | 35.56904 | -77.60367 | 36281 ft | 430 kts | 224° |
| 2026-04-22 11:29 | 35.52186 | -77.64882 | 36309 ft | 429 kts | 224° |
| 2026-04-22 11:30 | 35.47478 | -77.69381 | 36316 ft | 429 kts | 224° |
| 2026-04-22 11:30 | 35.42768 | -77.73867 | 36318 ft | 428 kts | 224° |
| 2026-04-22 11:31 | 35.38058 | -77.78347 | 36317 ft | 428 kts | 224° |
| 2026-04-22 11:31 | 35.33380 | -77.82783 | 36318 ft | 428 kts | 224° |
| 2026-04-22 11:32 | 35.28664 | -77.87242 | 36318 ft | 428 kts | 224° |
| 2026-04-22 11:32 | 35.23948 | -77.91706 | 36317 ft | 428 kts | 224° |
| 2026-04-22 11:33 | 35.19239 | -77.96154 | 36307 ft | 428 kts | 224° |
| 2026-04-22 11:33 | 35.14527 | -78.00605 | 36301 ft | 428 kts | 224° |
| 2026-04-22 11:34 | 35.09822 | -78.05052 | 36317 ft | 427 kts | 224° |
| 2026-04-22 11:34 | 35.05116 | -78.09489 | 36322 ft | 427 kts | 224° |
| 2026-04-22 11:35 | 35.00407 | -78.13913 | 36318 ft | 427 kts | 224° |
| 2026-04-22 11:35 | 34.95701 | -78.18326 | 36317 ft | 427 kts | 224° |
| 2026-04-22 11:36 | 34.90987 | -78.22743 | 36301 ft | 426 kts | 224° |
| 2026-04-22 11:36 | 34.86287 | -78.27141 | 36317 ft | 425 kts | 224° |
| 2026-04-22 11:37 | 34.81598 | -78.31525 | 36321 ft | 425 kts | 224° |
| 2026-04-22 11:37 | 34.76940 | -78.35876 | 36318 ft | 424 kts | 224° |
| 2026-04-22 11:38 | 34.72258 | -78.40240 | 36311 ft | 424 kts | 224° |
| 2026-04-22 11:38 | 34.65231 | -78.46767 | 36309 ft | 423 kts | 225° |
| 2026-04-22 11:39 | 34.60550 | -78.51102 | 36320 ft | 422 kts | 225° |
| 2026-04-22 11:39 | 34.55881 | -78.55427 | 36328 ft | 421 kts | 225° |
| 2026-04-22 11:40 | 34.51248 | -78.59709 | 36321 ft | 421 kts | 225° |
| 2026-04-22 11:40 | 34.46559 | -78.64039 | 36314 ft | 421 kts | 225° |
| 2026-04-22 11:41 | 34.41908 | -78.68335 | 36313 ft | 420 kts | 225° |
| 2026-04-22 11:41 | 34.37225 | -78.72518 | 36318 ft | 422 kts | 223° |
| 2026-04-22 11:42 | 34.32376 | -78.76527 | 36304 ft | 422 kts | 221° |
| 2026-04-22 11:42 | 34.27504 | -78.80502 | 36308 ft | 422 kts | 222° |
| 2026-04-22 11:43 | 34.22658 | -78.84504 | 36305 ft | 421 kts | 222° |
| 2026-04-22 11:43 | 34.17838 | -78.88523 | 36282 ft | 421 kts | 222° |
| 2026-04-22 11:44 | 34.13017 | -78.92549 | 36295 ft | 421 kts | 222° |
| 2026-04-22 11:44 | 34.08186 | -78.96567 | 36307 ft | 421 kts | 222° |
| 2026-04-22 11:45 | 34.03355 | -79.00573 | 36316 ft | 421 kts | 222° |
| 2026-04-22 11:45 | 33.98523 | -79.04577 | 36295 ft | 421 kts | 222° |
| 2026-04-22 11:46 | 33.93694 | -79.08573 | 36299 ft | 421 kts | 222° |
| 2026-04-22 11:46 | 33.88865 | -79.12571 | 36306 ft | 421 kts | 222° |
| 2026-04-22 11:47 | 33.84030 | -79.16555 | 36312 ft | 421 kts | 221° |
| 2026-04-22 11:47 | 33.79191 | -79.20533 | 36312 ft | 421 kts | 221° |
| 2026-04-22 11:48 | 33.74352 | -79.24503 | 36284 ft | 421 kts | 221° |
| 2026-04-22 11:48 | 33.69517 | -79.28469 | 36299 ft | 421 kts | 222° |
| 2026-04-22 11:49 | 33.64730 | -79.32430 | 36312 ft | 420 kts | 223° |
| 2026-04-22 11:49 | 33.59968 | -79.36491 | 36317 ft | 419 kts | 223° |
| 2026-04-22 11:50 | 33.55225 | -79.40562 | 36320 ft | 419 kts | 223° |
| 2026-04-22 11:50 | 33.50470 | -79.44609 | 36322 ft | 419 kts | 222° |
| 2026-04-22 11:51 | 33.46504 | -79.47969 | 36296 ft | 420 kts | 222° |
| 2026-04-22 11:51 | 33.41724 | -79.52005 | 36301 ft | 421 kts | 222° |
| 2026-04-22 11:52 | 33.36937 | -79.56044 | 36303 ft | 421 kts | 222° |
| 2026-04-22 11:52 | 33.32148 | -79.60081 | 36305 ft | 421 kts | 222° |
| 2026-04-22 11:53 | 33.27353 | -79.64114 | 36306 ft | 421 kts | 222° |
| 2026-04-22 11:53 | 33.22558 | -79.68145 | 36287 ft | 422 kts | 221° |
| 2026-04-22 11:54 | 33.17750 | -79.72180 | 36291 ft | 423 kts | 221° |
| 2026-04-22 11:54 | 33.12936 | -79.76215 | 36295 ft | 423 kts | 221° |
| 2026-04-22 11:55 | 33.08116 | -79.80250 | 36300 ft | 424 kts | 221° |
| 2026-04-22 11:55 | 33.03290 | -79.84288 | 36311 ft | 424 kts | 221° |
| 2026-04-22 11:56 | 32.98493 | -79.88297 | 36319 ft | 424 kts | 221° |
| 2026-04-22 11:56 | 32.93661 | -79.92325 | 36314 ft | 424 kts | 221° |
| 2026-04-22 11:57 | 32.88830 | -79.96352 | 36317 ft | 424 kts | 221° |
| 2026-04-22 11:57 | 32.83991 | -80.00372 | 36317 ft | 424 kts | 221° |
| 2026-04-22 11:58 | 32.79148 | -80.04388 | 36336 ft | 424 kts | 221° |
| 2026-04-22 11:58 | 32.74306 | -80.08404 | 36314 ft | 424 kts | 221° |
| 2026-04-22 11:59 | 32.69466 | -80.12411 | 36321 ft | 424 kts | 221° |
| 2026-04-22 11:59 | 32.64624 | -80.16418 | 36322 ft | 424 kts | 221° |
| 2026-04-22 12:00 | 32.59786 | -80.20413 | 36321 ft | 424 kts | 221° |
| 2026-04-22 12:00 | 32.54953 | -80.24404 | 36320 ft | 423 kts | 221° |
| 2026-04-22 12:01 | 32.49960 | -80.28161 | 36293 ft | 429 kts | 215° |
| 2026-04-22 12:01 | 32.44697 | -80.31485 | 36291 ft | 429 kts | 215° |
| 2026-04-22 12:02 | 32.39477 | -80.34791 | 36297 ft | 429 kts | 215° |
| 2026-04-22 12:02 | 32.34213 | -80.38119 | 36301 ft | 429 kts | 215° |
| 2026-04-22 12:03 | 32.28952 | -80.41440 | 36306 ft | 429 kts | 215° |
| 2026-04-22 12:03 | 32.23680 | -80.44762 | 36287 ft | 429 kts | 215° |
| 2026-04-22 12:04 | 32.18406 | -80.48082 | 36284 ft | 429 kts | 215° |
| 2026-04-22 12:04 | 32.13133 | -80.51394 | 36286 ft | 430 kts | 215° |
| 2026-04-22 12:05 | 32.07848 | -80.54701 | 36285 ft | 430 kts | 215° |
| 2026-04-22 12:05 | 32.02589 | -80.57998 | 36292 ft | 429 kts | 215° |
| 2026-04-22 12:06 | 31.97315 | -80.61310 | 36272 ft | 429 kts | 215° |
| 2026-04-22 12:06 | 31.92035 | -80.64618 | 36292 ft | 429 kts | 215° |
| 2026-04-22 12:07 | 31.86755 | -80.67908 | 36290 ft | 430 kts | 215° |
| 2026-04-22 12:07 | 31.81475 | -80.71196 | 36295 ft | 430 kts | 215° |
| 2026-04-22 12:08 | 31.76187 | -80.74499 | 36296 ft | 429 kts | 215° |
| 2026-04-22 12:08 | 31.70942 | -80.77768 | 36285 ft | 429 kts | 215° |
| 2026-04-22 12:09 | 31.65667 | -80.81042 | 36296 ft | 429 kts | 215° |
| 2026-04-22 12:09 | 31.60393 | -80.84308 | 36303 ft | 428 kts | 215° |
| 2026-04-22 12:10 | 31.55127 | -80.87570 | 36304 ft | 428 kts | 215° |
| 2026-04-22 12:10 | 31.49858 | -80.90833 | 36308 ft | 428 kts | 215° |
| 2026-04-22 12:11 | 31.44596 | -80.94091 | 36290 ft | 427 kts | 215° |
| 2026-04-22 12:11 | 31.39332 | -80.97334 | 36302 ft | 427 kts | 215° |
| 2026-04-22 12:12 | 31.34072 | -81.00565 | 36306 ft | 427 kts | 215° |
| 2026-04-22 12:12 | 31.28818 | -81.03800 | 36313 ft | 427 kts | 214° |
| 2026-04-22 12:13 | 31.23084 | -81.05983 | 36315 ft | 445 kts | 195° |
| 2026-04-22 12:13 | 31.16849 | -81.06287 | 36286 ft | 454 kts | 188° |
| 2026-04-22 12:14 | 31.10535 | -81.06410 | 36287 ft | 454 kts | 188° |
| 2026-04-22 12:14 | 31.04206 | -81.06548 | 36288 ft | 455 kts | 188° |
| 2026-04-22 12:15 | 30.97879 | -81.06678 | 36290 ft | 455 kts | 188° |
| 2026-04-22 12:15 | 30.91536 | -81.06806 | 36269 ft | 456 kts | 188° |
| 2026-04-22 12:16 | 30.85191 | -81.06937 | 36273 ft | 456 kts | 188° |
| 2026-04-22 12:16 | 30.78839 | -81.07063 | 36281 ft | 457 kts | 188° |
| 2026-04-22 12:17 | 30.72480 | -81.07185 | 36292 ft | 457 kts | 188° |
| 2026-04-22 12:17 | 30.66123 | -81.07325 | 36298 ft | 457 kts | 189° |
| 2026-04-22 12:18 | 30.59807 | -81.07499 | 36272 ft | 456 kts | 190° |
| 2026-04-22 12:18 | 30.53475 | -81.07870 | 36285 ft | 455 kts | 191° |
| 2026-04-22 12:19 | 30.47151 | -81.08319 | 36292 ft | 455 kts | 191° |
| 2026-04-22 12:19 | 30.40821 | -81.08728 | 36299 ft | 456 kts | 191° |
| 2026-04-22 12:20 | 30.34476 | -81.09103 | 36306 ft | 456 kts | 191° |
| 2026-04-22 12:20 | 30.28130 | -81.09472 | 36306 ft | 456 kts | 191° |
| 2026-04-22 12:21 | 30.21831 | -81.09854 | 36305 ft | 456 kts | 191° |
| 2026-04-22 12:21 | 30.15487 | -81.10232 | 36311 ft | 456 kts | 191° |
| 2026-04-22 12:22 | 30.09141 | -81.10609 | 36285 ft | 456 kts | 191° |
| 2026-04-22 12:22 | 30.02805 | -81.10989 | 36301 ft | 456 kts | 191° |
| 2026-04-22 12:23 | 29.96466 | -81.11373 | 36312 ft | 456 kts | 191° |
| 2026-04-22 12:23 | 29.90118 | -81.11745 | 36315 ft | 456 kts | 191° |
| 2026-04-22 12:24 | 29.83817 | -81.12118 | 36318 ft | 456 kts | 191° |
| 2026-04-22 12:24 | 29.77461 | -81.12386 | 36300 ft | 458 kts | 188° |
| 2026-04-22 12:25 | 29.71076 | -81.12383 | 36305 ft | 460 kts | 187° |
| 2026-04-22 12:25 | 29.64680 | -81.12329 | 36305 ft | 459 kts | 187° |
| 2026-04-22 12:26 | 29.58273 | -81.12109 | 36305 ft | 467 kts | 179° |
| 2026-04-22 12:26 | 29.51924 | -81.10084 | 36294 ft | 480 kts | 167° |
| 2026-04-22 12:27 | 29.45637 | -81.07472 | 36304 ft | 480 kts | 167° |
| 2026-04-22 12:27 | 29.39358 | -81.04868 | 36296 ft | 480 kts | 167° |
| 2026-04-22 12:28 | 29.33073 | -81.02269 | 36303 ft | 480 kts | 167° |
| 2026-04-22 12:28 | 29.26783 | -80.99675 | 36305 ft | 480 kts | 167° |
| 2026-04-22 12:29 | 29.20494 | -80.97077 | 36291 ft | 480 kts | 167° |
| 2026-04-22 12:29 | 29.14242 | -80.94504 | 36300 ft | 480 kts | 167° |
| 2026-04-22 12:30 | 29.04810 | -80.90623 | 36312 ft | 481 kts | 167° |
| 2026-04-22 12:31 | 28.98505 | -80.88042 | 36311 ft | 481 kts | 167° |
| 2026-04-22 12:31 | 28.92208 | -80.85470 | 36271 ft | 481 kts | 167° |
| 2026-04-22 12:32 | 28.85900 | -80.82889 | 36279 ft | 481 kts | 167° |
| 2026-04-22 12:32 | 28.76435 | -80.79020 | 36264 ft | 481 kts | 167° |
| 2026-04-22 12:33 | 28.70124 | -80.76456 | 36274 ft | 481 kts | 167° |
| 2026-04-22 12:33 | 28.63815 | -80.73887 | 36106 ft | 482 kts | 167° |
| 2026-04-22 12:34 | 28.60665 | -80.72606 | 35860 ft | 481 kts | 167° |
| 2026-04-22 12:34 | 28.57514 | -80.71326 | 35616 ft | 480 kts | 167° |
| 2026-04-22 12:34 | 28.54367 | -80.70045 | 35378 ft | 480 kts | 167° |
| 2026-04-22 12:34 | 28.51222 | -80.68766 | 35172 ft | 480 kts | 167° |
| 2026-04-22 12:35 | 28.48117 | -80.67509 | 34937 ft | 480 kts | 167° |
| 2026-04-22 12:35 | 28.44970 | -80.66235 | 34699 ft | 480 kts | 167° |
| 2026-04-22 12:35 | 28.41828 | -80.64961 | 34463 ft | 480 kts | 166° |
| 2026-04-22 12:35 | 28.38683 | -80.63686 | 34219 ft | 480 kts | 166° |
| 2026-04-22 12:36 | 28.35539 | -80.62413 | 33923 ft | 480 kts | 166° |
| 2026-04-22 12:36 | 28.32391 | -80.61142 | 33294 ft | 480 kts | 166° |
| 2026-04-22 12:36 | 28.29228 | -80.59871 | 32380 ft | 483 kts | 166° |
| 2026-04-22 12:36 | 28.26046 | -80.58591 | 31462 ft | 486 kts | 166° |
| 2026-04-22 12:37 | 28.22841 | -80.57303 | 30514 ft | 489 kts | 165° |
| 2026-04-22 12:37 | 28.19631 | -80.56006 | 29412 ft | 491 kts | 165° |
| 2026-04-22 12:37 | 28.16430 | -80.54707 | 28808 ft | 483 kts | 165° |
| 2026-04-22 12:37 | 28.13286 | -80.53426 | 28157 ft | 477 kts | 165° |
| 2026-04-22 12:38 | 28.10233 | -80.52185 | 27834 ft | 465 kts | 165° |
| 2026-04-22 12:38 | 28.07241 | -80.50974 | 27705 ft | 449 kts | 165° |
| 2026-04-22 12:38 | 28.04328 | -80.49799 | 27391 ft | 439 kts | 165° |
| 2026-04-22 12:38 | 28.01455 | -80.48648 | 26895 ft | 435 kts | 165° |
| 2026-04-22 12:39 | 27.98613 | -80.47514 | 26403 ft | 431 kts | 165° |
| 2026-04-22 12:39 | 27.93939 | -80.45649 | 25639 ft | 426 kts | 165° |
| 2026-04-22 12:39 | 27.91152 | -80.44533 | 25192 ft | 423 kts | 165° |
| 2026-04-22 12:40 | 27.88387 | -80.43422 | 24768 ft | 420 kts | 164° |
| 2026-04-22 12:40 | 27.85658 | -80.42322 | 24090 ft | 415 kts | 164° |
| 2026-04-22 12:40 | 27.82940 | -80.41228 | 23525 ft | 412 kts | 164° |
| 2026-04-22 12:40 | 27.80253 | -80.40153 | 22920 ft | 408 kts | 164° |
| 2026-04-22 12:41 | 27.76703 | -80.38736 | 22154 ft | 401 kts | 164° |
| 2026-04-22 12:41 | 27.74972 | -80.38044 | 21778 ft | 398 kts | 164° |
| 2026-04-22 12:41 | 27.72378 | -80.37006 | 21194 ft | 393 kts | 163° |
| 2026-04-22 12:41 | 27.69813 | -80.35978 | 20612 ft | 389 kts | 163° |
| 2026-04-22 12:42 | 27.67276 | -80.34965 | 20043 ft | 384 kts | 163° |
| 2026-04-22 12:42 | 27.64822 | -80.33807 | 19475 ft | 381 kts | 158° |
| 2026-04-22 12:42 | 27.62435 | -80.32549 | 18906 ft | 377 kts | 157° |
| 2026-04-22 12:42 | 27.60080 | -80.31302 | 18315 ft | 372 kts | 157° |
| 2026-04-22 12:43 | 27.57749 | -80.30065 | 17670 ft | 368 kts | 157° |
| 2026-04-22 12:43 | 27.55449 | -80.28844 | 17037 ft | 364 kts | 156° |
| 2026-04-22 12:43 | 27.53171 | -80.27638 | 16410 ft | 360 kts | 158° |
| 2026-04-22 12:43 | 27.50917 | -80.26451 | 15821 ft | 356 kts | 157° |
| 2026-04-22 12:44 | 27.48681 | -80.25277 | 15230 ft | 352 kts | 156° |
| 2026-04-22 12:44 | 27.46473 | -80.24119 | 14648 ft | 348 kts | 156° |
| 2026-04-22 12:44 | 27.44288 | -80.22968 | 14079 ft | 345 kts | 156° |
| 2026-04-22 12:44 | 27.42126 | -80.21826 | 13426 ft | 342 kts | 156° |
| 2026-04-22 12:45 | 27.39978 | -80.20694 | 12782 ft | 339 kts | 156° |
| 2026-04-22 12:45 | 27.37854 | -80.19577 | 12199 ft | 335 kts | 155° |
| 2026-04-22 12:45 | 27.35754 | -80.18473 | 11711 ft | 329 kts | 155° |
| 2026-04-22 12:45 | 27.33762 | -80.17425 | 11589 ft | 312 kts | 155° |
| 2026-04-22 12:46 | 27.31835 | -80.16413 | 11387 ft | 300 kts | 155° |
| 2026-04-22 12:46 | 27.29959 | -80.15429 | 11016 ft | 296 kts | 154° |
| 2026-04-22 12:46 | 27.28102 | -80.14455 | 10595 ft | 293 kts | 154° |
| 2026-04-22 12:46 | 27.26259 | -80.13489 | 10167 ft | 291 kts | 154° |
| 2026-04-22 12:47 | 27.24423 | -80.12543 | 9734 ft | 290 kts | 154° |
| 2026-04-22 12:47 | 27.22584 | -80.11640 | 9345 ft | 287 kts | 155° |
| 2026-04-22 12:47 | 27.20754 | -80.10761 | 8922 ft | 285 kts | 155° |
| 2026-04-22 12:47 | 27.18937 | -80.09894 | 8490 ft | 283 kts | 155° |
| 2026-04-22 12:48 | 27.17137 | -80.09033 | 8081 ft | 280 kts | 154° |
| 2026-04-22 12:48 | 27.15358 | -80.08177 | 7674 ft | 277 kts | 155° |
| 2026-04-22 12:48 | 27.13596 | -80.07331 | 7308 ft | 274 kts | 152° |
| 2026-04-22 12:48 | 27.11855 | -80.06482 | 6985 ft | 272 kts | 152° |
| 2026-04-22 12:49 | 27.10129 | -80.05632 | 6728 ft | 270 kts | 152° |
| 2026-04-22 12:49 | 27.08426 | -80.04788 | 6478 ft | 266 kts | 153° |
| 2026-04-22 12:49 | 27.06733 | -80.03945 | 6102 ft | 267 kts | 153° |
| 2026-04-22 12:49 | 27.05044 | -80.03105 | 5819 ft | 265 kts | 153° |
| 2026-04-22 12:50 | 27.03365 | -80.02273 | 5529 ft | 262 kts | 153° |
| 2026-04-22 12:50 | 27.01694 | -80.01446 | 5202 ft | 262 kts | 151° |
| 2026-04-22 12:50 | 27.00055 | -80.00634 | 4894 ft | 260 kts | 152° |
| 2026-04-22 12:50 | 26.98405 | -79.99817 | 4627 ft | 257 kts | 151° |
| 2026-04-22 12:51 | 26.96701 | -79.99179 | 4253 ft | 262 kts | 167° |
| 2026-04-22 12:51 | 26.94872 | -79.99236 | 4028 ft | 265 kts | 189° |
| 2026-04-22 12:51 | 26.93151 | -80.00042 | 3998 ft | 276 kts | 209° |
| 2026-04-22 12:51 | 26.91607 | -80.01340 | 4006 ft | 279 kts | 213° |
| 2026-04-22 12:52 | 26.90064 | -80.02670 | 4001 ft | 279 kts | 213° |
| 2026-04-22 12:52 | 26.88527 | -80.03993 | 4001 ft | 278 kts | 214° |
| 2026-04-22 12:52 | 26.86988 | -80.05317 | 3996 ft | 279 kts | 213° |
| 2026-04-22 12:52 | 26.85489 | -80.06613 | 3997 ft | 265 kts | 214° |
| 2026-04-22 12:53 | 26.84069 | -80.07844 | 3999 ft | 251 kts | 214° |
| 2026-04-22 12:53 | 26.82751 | -80.08995 | 3999 ft | 239 kts | 213° |
| 2026-04-22 12:53 | 26.81516 | -80.10240 | 3997 ft | 241 kts | 229° |
| 2026-04-22 12:53 | 26.80701 | -80.11902 | 4004 ft | 248 kts | 252° |
| 2026-04-22 12:54 | 26.80437 | -80.13789 | 3957 ft | 245 kts | 266° |
| 2026-04-22 12:54 | 26.80314 | -80.15679 | 3645 ft | 245 kts | 265° |
| 2026-04-22 12:54 | 26.80191 | -80.17589 | 3385 ft | 243 kts | 265° |
| 2026-04-22 12:54 | 26.80075 | -80.19470 | 3119 ft | 242 kts | 265° |
| 2026-04-22 12:55 | 26.79965 | -80.21348 | 2826 ft | 241 kts | 264° |
| 2026-04-22 12:55 | 26.79523 | -80.23119 | 2552 ft | 235 kts | 233° |
| 2026-04-22 12:55 | 26.78377 | -80.24337 | 2499 ft | 225 kts | 203° |
| 2026-04-22 12:55 | 26.76942 | -80.24947 | 2493 ft | 221 kts | 188° |
| 2026-04-22 12:56 | 26.75437 | -80.25321 | 2497 ft | 222 kts | 186° |
| 2026-04-22 12:56 | 26.73921 | -80.25664 | 2495 ft | 222 kts | 185° |
| 2026-04-22 12:56 | 26.72406 | -80.26002 | 2493 ft | 222 kts | 185° |
| 2026-04-22 12:56 | 26.70893 | -80.26119 | 2507 ft | 214 kts | 161° |
| 2026-04-22 12:57 | 26.69622 | -80.25391 | 2498 ft | 204 kts | 131° |
| 2026-04-22 12:57 | 26.68927 | -80.24065 | 2339 ft | 197 kts | 99° |
| 2026-04-22 12:57 | 26.68811 | -80.22549 | 2129 ft | 195 kts | 92° |
| 2026-04-22 12:57 | 26.68756 | -80.21053 | 1881 ft | 196 kts | 91° |
| 2026-04-22 12:58 | 26.68694 | -80.19514 | 1620 ft | 192 kts | 93° |
| 2026-04-22 12:58 | 26.68633 | -80.18080 | 1383 ft | 177 kts | 92° |
| 2026-04-22 12:58 | 26.68577 | -80.16781 | 1146 ft | 160 kts | 92° |
| 2026-04-22 12:58 | 26.68525 | -80.15596 | 961 ft | 141 kts | 92° |
| 2026-04-22 12:59 | 26.68481 | -80.14580 | 781 ft | 127 kts | 94° |
| 2026-04-22 12:59 | 26.68441 | -80.13591 | 607 ft | 128 kts | 94° |
| 2026-04-22 12:59 | 26.68399 | -80.12591 | 411 ft | 129 kts | 95° |
| 2026-04-22 12:59 | 26.68354 | -80.11589 | 245 ft | 130 kts | 94° |
| 2026-04-22 13:00 | 26.68310 | -80.10609 | 81 ft | 124 kts | 92° |
| 2026-04-22 13:00 | 26.68275 | -80.09672 | 46 ft | 114 kts | 93° |
| 2026-04-22 13:00 | 26.68234 | -80.08691 | 549 ft | 131 kts | 91° |
| 2026-04-22 13:00 | 26.68190 | -80.07748 | 1339 ft | 118 kts | 93° |
| 2026-04-22 13:01 | 26.68161 | -80.06679 | 1394 ft | 155 kts | 92° |
| 2026-04-22 13:01 | 26.68202 | -80.05382 | 1768 ft | 179 kts | 76° |
| 2026-04-22 13:01 | 26.68867 | -80.04143 | 2438 ft | 192 kts | 53° |
| 2026-04-22 13:01 | 26.69860 | -80.03088 | 2895 ft | 204 kts | 34° |
| 2026-04-22 13:02 | 26.71262 | -80.02687 | 2998 ft | 216 kts | 4° |
| 2026-04-22 13:02 | 26.72768 | -80.02954 | 2996 ft | 221 kts | 353° |
| 2026-04-22 13:02 | 26.74223 | -80.03544 | 3001 ft | 227 kts | 337° |
| 2026-04-22 13:02 | 26.75503 | -80.04569 | 2997 ft | 232 kts | 312° |
| 2026-04-22 13:03 | 26.76174 | -80.06207 | 2997 ft | 240 kts | 280° |
| 2026-04-22 13:03 | 26.76334 | -80.08100 | 2998 ft | 241 kts | 272° |
| 2026-04-22 13:03 | 26.76396 | -80.09950 | 2998 ft | 241 kts | 272° |
| 2026-04-22 13:03 | 26.76440 | -80.11812 | 2997 ft | 239 kts | 271° |
| 2026-04-22 13:04 | 26.76484 | -80.13668 | 3002 ft | 239 kts | 271° |
| 2026-04-22 13:04 | 26.76530 | -80.15530 | 3001 ft | 241 kts | 271° |
| 2026-04-22 13:04 | 26.76574 | -80.17407 | 2997 ft | 241 kts | 271° |
| 2026-04-22 13:04 | 26.76618 | -80.19269 | 2994 ft | 238 kts | 271° |
| 2026-04-22 13:05 | 26.76669 | -80.21123 | 2996 ft | 238 kts | 271° |
| 2026-04-22 13:05 | 26.76731 | -80.22972 | 2996 ft | 238 kts | 271° |
| 2026-04-22 13:05 | 26.76603 | -80.24801 | 2997 ft | 235 kts | 248° |
| 2026-04-22 13:05 | 26.75712 | -80.26277 | 3002 ft | 228 kts | 213° |
| 2026-04-22 13:06 | 26.74313 | -80.26941 | 2994 ft | 216 kts | 181° |
| 2026-04-22 13:06 | 26.72825 | -80.27018 | 2996 ft | 209 kts | 173° |
| 2026-04-22 13:06 | 26.71401 | -80.27002 | 3009 ft | 201 kts | 173° |
| 2026-04-22 13:06 | 26.70063 | -80.26780 | 3011 ft | 189 kts | 147° |
| 2026-04-22 13:07 | 26.69153 | -80.25829 | 3016 ft | 177 kts | 113° |
| 2026-04-22 13:07 | 26.68898 | -80.24510 | 3016 ft | 175 kts | 92° |
| 2026-04-22 13:07 | 26.68844 | -80.23139 | 3013 ft | 176 kts | 92° |
| 2026-04-22 13:07 | 26.68791 | -80.21817 | 2901 ft | 161 kts | 92° |
| 2026-04-22 13:08 | 26.68740 | -80.20620 | 2676 ft | 151 kts | 91° |
| 2026-04-22 13:08 | 26.68697 | -80.19439 | 2261 ft | 154 kts | 92° |
| 2026-04-22 13:08 | 26.68666 | -80.18243 | 1795 ft | 159 kts | 92° |
| 2026-04-22 13:08 | 26.68607 | -80.16998 | 1345 ft | 160 kts | 93° |
| 2026-04-22 13:09 | 26.68538 | -80.15763 | 1036 ft | 154 kts | 91° |
| 2026-04-22 13:09 | 26.68494 | -80.14624 | 784 ft | 136 kts | 93° |
| 2026-04-22 13:09 | 26.68454 | -80.13573 | 582 ft | 130 kts | 94° |
| 2026-04-22 13:09 | 26.68407 | -80.12578 | 392 ft | 125 kts | 95° |
| 2026-04-22 13:10 | 26.68356 | -80.11601 | 234 ft | 127 kts | 93° |
| 2026-04-22 13:10 | 26.68314 | -80.10644 | 79 ft | 122 kts | 92° |
| 2026-04-22 13:10 | 26.68273 | -80.09717 | 22 ft | 104 kts | 93° |
| 2026-04-22 13:10 | 26.68248 | -80.09123 | 22 ft | 39 kts | 93° |
| 2026-04-22 13:11 | 26.68239 | -80.08924 | 22 ft | 17 kts | 91° |
| 2026-04-22 13:11 | 26.68241 | -80.08890 | 22 ft | 3 kts | 79° |
| 2026-04-22 13:11 | 26.68251 | -80.08861 | 24 ft | 5 kts | 58° |
| 2026-04-22 13:11 | 26.68285 | -80.08843 | 22 ft | 6 kts | 5° |
| 2026-04-22 13:12 | 26.68325 | -80.08837 | 22 ft | 6 kts | 23° |
| 2026-04-22 13:12 | 26.68342 | -80.08792 | 22 ft | 8 kts | 91° |
| 2026-04-22 13:12 | 26.68354 | -80.08729 | 23 ft | 9 kts | 46° |
| 2026-04-22 13:12 | 26.68421 | -80.08727 | 22 ft | 11 kts | 329° |
| 2026-04-22 13:13 | 26.68438 | -80.08804 | 22 ft | 10 kts | 272° |
| 2026-04-22 13:13 | 26.68441 | -80.08868 | 22 ft | 8 kts | 272° |
| 2026-04-22 13:13 | 26.68461 | -80.08929 | 22 ft | 8 kts | 324° |
| 2026-04-22 13:13 | 26.68485 | -80.08935 | 22 ft | 3 kts | 356° |
| 2026-04-22 13:14 | 26.68502 | -80.08935 | 23 ft | 3 kts | 1° |
| 2026-04-22 13:14 | 26.68517 | -80.08934 | 22 ft | 2 kts | 2° |
| 2026-04-22 13:14 | 26.68521 | -80.08934 | 22 ft | 0 kts | 2° |